createdAt,value
2022-09-12T00:01:23.791Z,2.30
2022-09-12T00:04:00.097Z,2.10
2022-09-12T00:06:38.149Z,8.43
2022-09-12T00:09:09.010Z,6.87
2022-09-12T00:11:37.975Z,5.50
2022-09-12T00:14:05.967Z,7.07
2022-09-12T00:16:34.614Z,6.77
2022-09-12T00:19:03.014Z,5.97
2022-09-12T00:21:30.286Z,7.33
2022-09-12T00:23:57.403Z,6.77
2022-09-12T00:26:24.869Z,5.20
2022-09-12T00:28:52.431Z,2.10
2022-09-12T00:31:22.529Z,1.30
2022-09-12T00:33:53.443Z,1.23
2022-09-12T00:36:22.406Z,1.50
2022-09-12T00:38:50.827Z,1.33
2022-09-12T00:41:20.990Z,1.00
2022-09-12T00:44:00.919Z,1.00
2022-09-12T00:46:54.329Z,8.30
2022-09-12T00:49:29.891Z,2.27
2022-09-12T00:52:10.663Z,6.10
2022-09-12T00:54:54.934Z,4.97
2022-09-12T00:57:24.984Z,2.23
2022-09-12T00:59:56.572Z,2.33
2022-09-12T01:02:24.143Z,3.30
2022-09-12T01:04:51.905Z,1.77
2022-09-12T01:07:20.278Z,1.00
2022-09-12T01:09:47.765Z,0.93
2022-09-12T01:12:15.933Z,1.00
2022-09-12T01:14:43.236Z,1.90
2022-09-12T01:17:17.501Z,1.50
2022-09-12T01:20:06.164Z,0.93
2022-09-12T01:22:57.358Z,6.43
2022-09-12T01:25:39.434Z,5.27
2022-09-12T01:28:09.727Z,6.33
2022-09-12T01:31:06.502Z,6.00
2022-09-12T01:33:39.481Z,6.40
2022-09-12T01:36:29.758Z,5.93
2022-09-12T01:38:59.648Z,5.93
2022-09-12T01:41:37.192Z,5.00
2022-09-12T01:44:19.331Z,6.83
2022-09-12T01:46:53.008Z,1.00
2022-09-12T01:49:27.904Z,0.80
2022-09-12T01:52:06.345Z,4.53
2022-09-12T01:54:42.663Z,6.40
2022-09-12T01:57:14.906Z,2.20
2022-09-12T01:59:46.355Z,0.80
2022-09-12T02:02:21.515Z,1.23
2022-09-12T02:05:06.862Z,0.80
2022-09-12T02:07:45.503Z,6.90
2022-09-12T02:10:28.061Z,0.83
2022-09-12T02:13:04.789Z,7.03
2022-09-12T02:15:45.739Z,6.87
2022-09-12T02:18:18.903Z,0.90
2022-09-12T02:20:49.449Z,1.50
2022-09-12T02:23:24.120Z,1.10
2022-09-12T02:25:54.773Z,3.90
2022-09-12T02:28:28.413Z,2.50
2022-09-12T02:31:23.665Z,6.53
2022-09-12T02:34:01.240Z,1.63
2022-09-12T02:36:54.863Z,8.13
2022-09-12T02:39:22.366Z,2.57
2022-09-12T02:41:53.822Z,1.57
2022-09-12T02:44:21.557Z,2.00
2022-09-12T02:46:51.534Z,1.00
2022-09-12T02:49:19.329Z,1.13
2022-09-12T02:51:47.720Z,0.80
2022-09-12T02:54:16.517Z,1.00
2022-09-12T02:56:45.283Z,1.00
2022-09-12T02:59:16.979Z,1.30
2022-09-12T03:01:54.345Z,0.97
2022-09-12T03:04:38.082Z,2.50
2022-09-12T03:07:24.479Z,7.23
2022-09-12T03:10:53.173Z,2.43
2022-09-12T03:13:26.997Z,1.00
2022-09-12T03:16:17.824Z,5.00
2022-09-12T03:18:57.626Z,0.97
2022-09-12T03:21:37.641Z,7.30
2022-09-12T03:24:26.154Z,6.83
2022-09-12T03:27:09.119Z,2.60
2022-09-12T03:29:38.335Z,5.60
2022-09-12T03:32:05.472Z,7.40
2022-09-12T03:34:32.563Z,6.83
2022-09-12T03:36:59.916Z,8.47
2022-09-12T03:39:28.133Z,9.37
2022-09-12T03:41:55.893Z,5.97
2022-09-12T03:44:23.025Z,3.30
2022-09-12T03:46:50.830Z,1.30
2022-09-12T03:49:18.114Z,0.83
2022-09-12T03:51:45.524Z,1.00
2022-09-12T03:54:12.856Z,0.93
2022-09-12T03:56:41.479Z,2.20
2022-09-12T03:59:08.901Z,4.30
2022-09-12T04:01:36.084Z,7.10
2022-09-12T04:04:03.359Z,7.67
2022-09-12T04:06:31.325Z,9.07
2022-09-12T04:08:58.739Z,10.43
2022-09-12T04:11:26.263Z,4.70
2022-09-12T04:13:54.184Z,2.30
2022-09-12T04:16:21.664Z,2.57
2022-09-12T04:18:49.239Z,1.27
2022-09-12T04:21:19.139Z,0.90
2022-09-12T04:23:46.497Z,1.83
2022-09-12T04:26:14.838Z,0.90
2022-09-12T04:28:42.091Z,4.30
2022-09-12T04:31:12.936Z,3.37
2022-09-12T04:33:40.420Z,2.20
2022-09-12T04:36:10.117Z,6.10
2022-09-12T04:38:37.667Z,6.50
2022-09-12T04:41:19.900Z,7.63
2022-09-12T04:43:48.384Z,0.90
2022-09-12T04:46:17.706Z,1.20
2022-09-12T04:48:45.170Z,1.00
2022-09-12T04:51:15.058Z,0.87
2022-09-12T04:53:42.936Z,1.00
2022-09-12T04:56:11.658Z,2.37
2022-09-12T04:58:39.286Z,4.00
2022-09-12T05:01:10.334Z,7.20
2022-09-12T05:03:39.986Z,6.60
2022-09-12T05:06:09.386Z,6.47
2022-09-12T05:08:37.071Z,16.60
2022-09-12T05:11:06.179Z,7.90
2022-09-12T05:13:34.006Z,7.33
2022-09-12T05:16:02.945Z,10.17
2022-09-12T05:18:35.383Z,9.60
2022-09-12T05:21:05.366Z,7.67
2022-09-12T05:23:33.993Z,7.30
2022-09-12T05:26:01.839Z,9.33
2022-09-12T05:28:37.928Z,8.60
2022-09-12T05:31:07.549Z,7.80
2022-09-12T05:33:36.212Z,8.43
2022-09-12T05:36:04.583Z,7.07
2022-09-12T05:38:31.734Z,9.33
2022-09-12T05:41:06.426Z,7.20
2022-09-12T05:43:34.839Z,6.90
2022-09-12T05:46:03.324Z,7.17
2022-09-12T05:48:30.589Z,6.43
2022-09-12T05:51:02.792Z,7.43
2022-09-12T05:53:31.563Z,10.23
2022-09-12T05:56:12.991Z,10.83
2022-09-12T05:58:42.426Z,2.13
2022-09-12T06:01:15.156Z,3.03
2022-09-12T06:03:44.788Z,1.20
2022-09-12T06:06:14.139Z,1.00
2022-09-12T06:08:45.987Z,0.90
2022-09-12T06:11:15.883Z,1.10
2022-09-12T06:13:43.448Z,1.40
2022-09-12T06:16:11.676Z,1.93
2022-09-12T06:18:39.556Z,4.80
2022-09-12T06:21:11.525Z,6.87
2022-09-12T06:23:39.323Z,4.70
2022-09-12T06:26:08.172Z,7.60
2022-09-12T06:28:36.688Z,6.87
2022-09-12T06:31:08.736Z,8.37
2022-09-12T06:33:40.210Z,7.00
2022-09-12T06:36:20.191Z,6.93
2022-09-12T06:38:48.912Z,1.10
2022-09-12T06:41:16.402Z,1.10
2022-09-12T06:43:43.786Z,1.10
2022-09-12T06:46:15.991Z,1.47
2022-09-12T06:48:43.538Z,1.10
2022-09-12T06:51:16.582Z,1.47
2022-09-12T06:53:44.819Z,0.93
2022-09-12T06:56:17.100Z,0.97
2022-09-12T06:58:44.605Z,1.17
2022-09-12T07:01:17.300Z,1.10
2022-09-12T07:03:49.340Z,0.97
2022-09-12T07:06:18.821Z,1.00
2022-09-12T07:08:46.155Z,0.90
2022-09-12T07:11:20.774Z,0.80
2022-09-12T07:13:50.274Z,0.90
2022-09-12T07:16:20.501Z,1.10
2022-09-12T07:18:52.153Z,0.87
2022-09-12T07:21:19.849Z,2.03
2022-09-12T07:23:47.833Z,0.93
2022-09-12T07:26:16.294Z,1.00
2022-09-12T07:28:44.031Z,1.10
2022-09-12T07:31:13.766Z,1.10
2022-09-12T07:33:41.869Z,1.60
2022-09-12T07:36:16.970Z,3.50
2022-09-12T07:38:44.913Z,0.93
2022-09-12T07:41:14.100Z,0.90
2022-09-12T07:43:44.682Z,1.00
2022-09-12T07:46:12.239Z,0.90
2022-09-12T07:48:40.054Z,3.33
2022-09-12T07:51:09.274Z,6.50
2022-09-12T07:53:38.804Z,7.20
2022-09-12T07:56:07.115Z,6.87
2022-09-12T07:58:36.604Z,6.97
2022-09-12T08:01:14.344Z,7.07
2022-09-12T08:03:42.567Z,1.20
2022-09-12T08:06:15.220Z,2.70
2022-09-12T08:08:43.999Z,1.10
2022-09-12T08:11:14.106Z,1.43
2022-09-12T08:13:42.029Z,1.63
2022-09-12T08:16:21.616Z,4.60
2022-09-12T08:18:50.026Z,1.30
2022-09-12T08:21:23.384Z,1.10
2022-09-12T08:23:55.603Z,1.20
2022-09-12T08:26:23.624Z,3.70
2022-09-12T08:28:50.992Z,0.97
2022-09-12T08:31:20.262Z,0.80
2022-09-12T08:33:47.846Z,1.93
2022-09-12T08:36:21.457Z,1.03
2022-09-12T08:38:51.170Z,0.90
2022-09-12T08:41:40.991Z,1.10
2022-09-12T08:44:38.800Z,5.23
2022-09-12T08:47:18.086Z,9.03
2022-09-12T08:49:53.829Z,1.00
2022-09-12T08:52:41.857Z,1.00
2022-09-12T08:55:25.347Z,3.33
2022-09-12T08:57:52.982Z,4.17
2022-09-12T09:00:21.705Z,1.13
2022-09-12T09:03:17.680Z,1.10
2022-09-12T09:05:51.625Z,0.80
2022-09-12T09:08:43.675Z,1.13
2022-09-12T09:11:26.607Z,1.87
2022-09-12T09:14:33.327Z,1.93
2022-09-12T09:17:01.259Z,8.10
2022-09-12T09:19:34.833Z,6.03
2022-09-12T09:22:12.204Z,7.10
2022-09-12T09:24:47.079Z,4.57
2022-09-12T09:27:40.398Z,1.73
2022-09-12T09:30:19.477Z,4.80
2022-09-12T09:32:51.736Z,1.10
2022-09-12T09:35:36.784Z,0.90
2022-09-12T09:38:25.717Z,6.20
2022-09-12T09:41:14.290Z,3.40
2022-09-12T09:43:41.394Z,1.00
2022-09-12T09:46:08.582Z,4.30
2022-09-12T09:48:38.682Z,6.43
2022-09-12T09:51:08.207Z,5.70
2022-09-12T09:53:54.115Z,5.57
2022-09-12T09:56:34.505Z,0.77
2022-09-12T09:59:12.132Z,7.57
2022-09-12T10:01:51.914Z,2.90
2022-09-12T10:04:30.975Z,0.90
2022-09-12T10:07:03.098Z,5.47
2022-09-12T10:09:34.846Z,6.10
2022-09-12T10:12:20.278Z,5.87
2022-09-12T10:15:01.387Z,0.87
2022-09-12T10:17:34.505Z,6.00
2022-09-12T10:20:21.455Z,6.60
2022-09-12T10:22:49.424Z,0.77
2022-09-12T10:25:17.703Z,0.80
2022-09-12T10:27:44.755Z,0.80
2022-09-12T10:38:28.991Z,3.40
2022-09-12T10:41:08.033Z,4.60
2022-09-12T10:43:37.589Z,5.07
2022-09-12T10:46:16.816Z,5.13
2022-09-12T10:49:04.745Z,0.97
2022-09-12T10:51:31.786Z,5.43
2022-09-12T10:54:00.396Z,6.30
2022-09-12T10:56:56.077Z,3.27
2022-09-12T10:59:50.945Z,1.83
2022-09-12T11:02:28.209Z,1.10
2022-09-12T11:05:43.031Z,6.03
2022-09-12T11:08:15.927Z,1.77
2022-09-12T11:10:57.130Z,0.80
2022-09-12T11:13:45.968Z,1.83
2022-09-12T11:16:41.070Z,0.90
2022-09-12T11:19:33.260Z,2.30
2022-09-12T11:22:00.778Z,6.13
2022-09-12T11:24:49.180Z,4.43
2022-09-12T11:27:37.293Z,0.90
2022-09-12T11:30:12.245Z,5.10
2022-09-12T11:32:57.413Z,2.77
2022-09-12T11:35:33.007Z,3.00
2022-09-12T11:38:24.358Z,6.00
2022-09-12T11:40:56.017Z,0.97
2022-09-12T11:43:47.117Z,2.00
2022-09-12T11:46:25.446Z,0.70
2022-09-12T11:49:09.291Z,2.63
2022-09-12T11:51:43.477Z,4.53
2022-09-12T11:54:37.609Z,1.43
2022-09-12T11:57:09.255Z,5.03
2022-09-12T11:59:54.241Z,4.40
2022-09-12T12:02:28.407Z,0.77
2022-09-12T12:05:21.097Z,5.40
2022-09-12T12:07:59.138Z,0.80
2022-09-12T12:10:39.677Z,3.00
2022-09-12T12:13:15.801Z,4.50
2022-09-12T12:15:49.435Z,0.80
2022-09-12T12:18:20.102Z,0.73
2022-09-12T12:20:47.555Z,0.93
2022-09-12T12:23:24.102Z,0.70
2022-09-12T12:25:54.709Z,0.90
2022-09-12T12:28:44.434Z,1.60
2022-09-12T12:31:17.001Z,0.97
2022-09-12T12:33:44.152Z,0.70
2022-09-12T12:36:29.616Z,1.23
2022-09-12T12:38:56.958Z,3.23
2022-09-12T12:41:24.633Z,1.57
2022-09-12T12:43:53.559Z,1.40
2022-09-12T12:46:26.309Z,0.80
2022-09-12T12:48:57.053Z,1.43
2022-09-12T12:51:24.185Z,1.53
2022-09-12T12:53:52.438Z,0.70
2022-09-12T12:56:28.787Z,0.90
2022-09-12T12:59:04.591Z,5.37
2022-09-12T13:01:32.394Z,7.27
2022-09-12T13:04:06.578Z,5.13
2022-09-12T13:06:45.489Z,5.30
2022-09-12T13:09:34.238Z,1.00
2022-09-12T13:12:10.719Z,6.60
2022-09-12T13:14:47.140Z,4.60
2022-09-12T13:29:46.585Z,0.70
2022-09-12T13:32:14.331Z,0.90
2022-09-12T13:34:58.964Z,1.10
2022-09-12T13:38:14.237Z,3.60
2022-09-12T13:40:56.528Z,1.40
2022-09-12T13:43:59.270Z,2.00
2022-09-12T13:46:30.698Z,3.27
2022-09-12T13:49:02.400Z,3.63
2022-09-12T13:51:31.057Z,5.00
2022-09-12T13:54:00.609Z,5.60
2022-09-12T13:56:27.696Z,3.97
2022-09-12T14:01:55.311Z,5.10
2022-09-12T14:04:44.259Z,1.70
2022-09-12T14:07:15.417Z,1.43
2022-09-12T14:09:47.922Z,0.93
2022-09-12T14:12:25.408Z,0.73
2022-09-12T14:14:54.660Z,2.63
2022-09-12T14:17:27.694Z,1.30
2022-09-12T14:19:55.172Z,2.67
2022-09-12T14:22:23.183Z,1.50
2022-09-12T14:24:51.834Z,0.80
2022-09-12T14:27:33.503Z,0.97
2022-09-12T14:30:26.515Z,5.63
2022-09-12T14:33:12.164Z,1.53
2022-09-12T14:35:47.344Z,3.00
2022-09-12T14:38:20.328Z,0.90
2022-09-12T14:40:51.242Z,0.80
2022-09-12T14:43:31.047Z,0.73
2022-09-12T14:46:00.964Z,4.93
2022-09-12T14:48:36.945Z,4.70
2022-09-12T14:51:04.805Z,4.90
2022-09-12T14:53:35.337Z,6.63
2022-09-12T14:56:11.818Z,5.40
2022-09-12T14:58:40.448Z,3.53
2022-09-12T15:01:33.970Z,4.50
2022-09-12T15:04:01.109Z,5.97
2022-09-12T15:06:33.941Z,4.53
2022-09-12T15:09:13.079Z,4.97
2022-09-12T15:11:51.716Z,2.20
2022-09-12T15:14:48.694Z,0.80
2022-09-12T15:17:29.859Z,0.70
2022-09-12T15:20:07.271Z,3.70
2022-09-12T15:22:34.762Z,4.53
2022-09-12T15:25:01.819Z,5.63
2022-09-12T15:27:55.013Z,4.43
2022-09-12T15:30:22.205Z,1.63
2022-09-12T15:33:14.994Z,1.10
2022-09-12T15:35:42.318Z,0.80
2022-09-12T15:38:09.479Z,2.73
2022-09-12T15:40:39.292Z,4.70
2022-09-12T15:43:06.583Z,5.47
2022-09-12T15:45:37.100Z,5.57
2022-09-12T15:48:04.293Z,5.13
2022-09-12T15:50:33.817Z,6.20
2022-09-12T15:53:01.141Z,5.03
2022-09-12T15:55:33.141Z,6.17
2022-09-12T15:58:04.898Z,4.97
2022-09-12T16:00:37.270Z,4.87
2022-09-12T16:03:05.247Z,4.93
2022-09-12T16:05:32.784Z,4.90
2022-09-12T16:07:59.855Z,5.07
2022-09-12T16:10:30.057Z,2.63
2022-09-12T16:12:57.925Z,3.37
2022-09-12T16:15:26.640Z,3.37
2022-09-12T16:17:54.115Z,1.83
2022-09-12T16:20:22.413Z,0.70
2022-09-12T16:22:51.703Z,1.03
2022-09-12T16:25:19.183Z,1.00
2022-09-12T16:27:46.852Z,1.00
2022-09-12T16:30:14.056Z,1.00
2022-09-12T16:32:41.235Z,1.53
2022-09-12T16:35:09.173Z,4.40
2022-09-12T16:37:36.409Z,6.00
2022-09-12T16:40:05.287Z,4.80
2022-09-12T16:42:32.365Z,4.40
2022-09-12T16:44:59.387Z,4.93
2022-09-12T16:47:26.759Z,3.40
2022-09-12T16:49:56.919Z,1.17
2022-09-12T16:52:24.141Z,1.93
2022-09-12T16:54:51.397Z,0.70
2022-09-12T16:57:19.242Z,0.90
2022-09-12T16:59:46.378Z,1.00
2022-09-12T17:02:13.949Z,1.10
2022-09-12T17:04:57.953Z,1.63
2022-09-12T17:07:25.029Z,2.47
2022-09-12T17:09:52.508Z,2.47
2022-09-12T17:12:19.600Z,1.00
2022-09-12T17:14:46.768Z,0.90
2022-09-12T17:17:13.831Z,0.90
2022-09-12T17:19:43.626Z,1.57
2022-09-12T17:22:10.838Z,1.63
2022-09-12T17:24:38.194Z,4.93
2022-09-12T17:27:08.092Z,5.57
2022-09-12T17:29:38.726Z,5.63
2022-09-12T17:32:05.825Z,4.93
2022-09-12T17:34:33.127Z,5.43
2022-09-12T17:37:00.224Z,5.77
2022-09-12T17:39:27.786Z,2.77
2022-09-12T17:41:57.594Z,3.63
2022-09-12T17:44:27.868Z,2.03
2022-09-12T17:46:57.366Z,2.27
2022-09-12T17:49:24.452Z,1.60
2022-09-12T17:51:52.552Z,1.13
2022-09-12T17:54:21.584Z,0.80
2022-09-12T17:56:52.769Z,0.93
2022-09-12T17:59:21.721Z,0.93
2022-09-12T18:02:07.698Z,0.70
2022-09-12T18:04:35.160Z,5.53
2022-09-12T18:07:02.302Z,6.63
2022-09-12T18:09:39.885Z,5.57
2022-09-12T18:12:11.801Z,5.47
2022-09-12T18:14:39.015Z,4.60
2022-09-12T18:17:11.429Z,5.50
2022-09-12T18:19:44.257Z,5.27
2022-09-12T18:22:11.593Z,2.13
2022-09-12T18:24:39.542Z,5.03
2022-09-12T18:27:06.619Z,6.10
2022-09-12T18:29:33.725Z,5.87
2022-09-12T18:32:06.710Z,5.90
2022-09-12T18:34:33.825Z,6.10
2022-09-12T18:37:02.085Z,5.90
2022-09-12T18:39:30.643Z,8.17
2022-09-12T18:41:57.936Z,4.10
2022-09-12T18:44:25.093Z,2.83
2022-09-12T18:46:53.000Z,2.73
2022-09-12T18:49:23.419Z,0.83
2022-09-12T18:51:50.880Z,0.70
2022-09-12T18:54:18.620Z,0.90
2022-09-12T18:56:46.004Z,0.80
2022-09-12T18:59:14.281Z,0.80
2022-09-12T19:01:42.364Z,2.00
2022-09-12T19:04:11.152Z,3.03
2022-09-12T19:06:40.880Z,6.23
2022-09-12T19:09:09.551Z,6.73
2022-09-12T19:11:38.865Z,6.30
2022-09-12T19:14:07.972Z,6.50
2022-09-12T19:16:35.788Z,6.13
2022-09-12T19:19:03.228Z,6.50
2022-09-12T19:21:34.609Z,9.50
2022-09-12T19:24:07.110Z,8.83
2022-09-12T19:26:34.427Z,6.43
2022-09-12T19:29:03.379Z,7.70
2022-09-12T19:31:31.789Z,7.27
2022-09-12T19:34:08.461Z,6.30
2022-09-12T19:36:50.915Z,6.60
2022-09-12T19:39:20.078Z,0.80
2022-09-12T19:41:47.676Z,0.70
2022-09-12T19:44:14.889Z,0.97
2022-09-12T19:46:43.109Z,1.30
2022-09-12T19:49:16.452Z,2.53
2022-09-12T19:51:44.418Z,0.80
2022-09-12T19:54:12.115Z,2.03
2022-09-12T19:56:43.705Z,0.87
2022-09-12T19:59:10.864Z,3.80
2022-09-12T20:01:38.213Z,6.63
2022-09-12T20:04:07.708Z,8.87
2022-09-12T20:06:37.704Z,7.40
2022-09-12T20:09:05.226Z,6.90
2022-09-12T20:11:32.329Z,9.20
2022-09-12T20:14:07.815Z,7.17
2022-09-12T20:16:37.339Z,6.47
2022-09-12T20:19:11.468Z,6.70
2022-09-12T20:21:41.067Z,6.30
2022-09-12T20:24:11.748Z,6.93
2022-09-12T20:26:39.390Z,5.87
2022-09-12T20:29:07.191Z,6.30
2022-09-12T20:31:35.638Z,6.27
2022-09-12T20:34:03.591Z,6.40
2022-09-12T20:36:30.686Z,6.37
2022-09-12T20:39:00.478Z,4.33
2022-09-12T20:41:30.088Z,3.20
2022-09-12T20:43:57.434Z,3.77
2022-09-12T20:46:29.731Z,2.23
2022-09-12T20:48:58.707Z,5.23
2022-09-12T20:51:26.888Z,8.00
2022-09-12T20:53:54.988Z,2.27
2022-09-12T20:56:23.451Z,1.17
2022-09-12T20:58:50.984Z,0.67
2022-09-12T21:01:18.449Z,0.97
2022-09-12T21:03:49.199Z,0.90
2022-09-12T21:06:19.911Z,1.20
2022-09-12T21:08:48.355Z,0.80
2022-09-12T21:11:16.048Z,0.97
2022-09-12T21:13:43.199Z,1.10
2022-09-12T21:16:19.642Z,3.53
2022-09-12T21:18:52.636Z,2.60
2022-09-12T21:21:31.765Z,1.20
2022-09-12T21:24:05.867Z,7.20
2022-09-12T21:26:33.235Z,8.70
2022-09-12T21:29:01.553Z,7.13
2022-09-12T21:31:28.788Z,8.37
2022-09-12T21:34:07.760Z,7.40
2022-09-12T21:36:37.587Z,8.30
2022-09-12T21:39:07.216Z,6.73
2022-09-12T21:41:36.801Z,7.13
2022-09-12T21:44:17.094Z,10.57
2022-09-12T21:47:00.850Z,1.53
2022-09-12T21:49:28.321Z,4.30
2022-09-12T21:51:55.709Z,6.37
2022-09-12T21:54:22.817Z,2.37
2022-09-12T21:56:50.161Z,1.53
2022-09-12T21:59:18.712Z,1.00
2022-09-12T22:01:49.375Z,1.10
2022-09-12T22:04:16.605Z,0.70
2022-09-12T22:06:44.004Z,1.00
2022-09-12T22:09:11.056Z,2.67
2022-09-12T22:11:38.190Z,6.63
2022-09-12T22:14:05.339Z,7.47
2022-09-12T22:16:34.002Z,8.57
2022-09-12T22:19:01.097Z,7.30
2022-09-12T22:21:28.483Z,5.10
2022-09-12T22:24:14.375Z,6.40
2022-09-12T22:26:43.449Z,2.20
2022-09-12T22:29:13.526Z,3.23
2022-09-12T22:31:41.004Z,3.33
2022-09-12T22:34:08.123Z,6.93
2022-09-12T22:36:38.729Z,8.73
2022-09-12T22:39:06.791Z,7.20
2022-09-12T22:41:33.944Z,8.90
2022-09-12T22:44:01.013Z,8.50
2022-09-12T22:46:30.245Z,4.67
2022-09-12T22:48:57.303Z,4.50
2022-09-12T22:51:24.759Z,2.17
2022-09-12T22:53:52.282Z,1.03
2022-09-12T22:56:19.719Z,0.90
2022-09-12T22:58:46.978Z,1.37
2022-09-12T23:01:14.305Z,0.80
2022-09-12T23:03:41.638Z,2.57
2022-09-12T23:06:10.525Z,6.00
2022-09-12T23:08:39.542Z,6.80
2022-09-12T23:11:09.641Z,6.00
2022-09-12T23:13:38.093Z,6.00
2022-09-12T23:16:08.096Z,6.37
2022-09-12T23:18:36.227Z,5.90
2022-09-12T23:21:04.997Z,6.50
2022-09-12T23:23:32.736Z,8.23
2022-09-12T23:26:09.548Z,5.60
2022-09-12T23:28:36.944Z,5.93
2022-09-12T23:31:04.162Z,6.93
2022-09-12T23:33:32.479Z,6.03
2022-09-12T23:36:05.180Z,6.13
2022-09-12T23:38:33.794Z,8.40
2022-09-12T23:41:02.197Z,6.13
2022-09-12T23:43:29.933Z,5.60
2022-09-12T23:45:58.491Z,4.37
2022-09-12T23:48:25.986Z,14.03
2022-09-12T23:50:53.431Z,2.33
2022-09-12T23:53:21.565Z,0.80
2022-09-12T23:55:49.685Z,1.07
2022-09-12T23:58:17.428Z,1.00
